Time;durP1;ratioP1;P1;durP2;ratioP2;P2;SDS_P1;SDS_P2;PMS_P1;PMS_P2;Temp;Humidity;BMP_temperature;BMP_pressure;BME280_temperature;BME280_humidity;BME280_pressure;Samples;Min_cycle;Max_cycle;Signal;HPM_P1;HPM_P2
2022/05/24 00:01:39;;;;;;;6.35;1.65;;;;;;;16.59;73.61;100013.91;4979407;28;20483;-70
2022/05/24 00:04:07;;;;;;;4.80;1.63;;;;;;;16.66;72.87;100023.19;4978919;28;20058;-70
2022/05/24 00:06:34;;;;;;;5.40;1.70;;;;;;;16.49;72.84;100022.88;4961027;28;20062;-71
2022/05/24 00:09:02;;;;;;;8.75;1.98;;;;;;;15.86;74.89;100018.81;4978811;28;20414;-64
2022/05/24 00:11:33;;;;;;;5.22;1.83;;;;;;;15.45;76.56;100021.13;4978776;28;20050;-65
2022/05/24 00:14:01;;;;;;;7.85;2.00;;;;;;;15.67;77.57;100039.06;4978602;28;20046;-66
2022/05/24 00:16:28;;;;;;;5.82;2.22;;;;;;;15.80;75.84;100046.06;4978806;28;20066;-64
2022/05/24 00:18:56;;;;;;;5.70;1.67;;;;;;;15.27;75.97;100050.38;4961442;28;20047;-70
2022/05/24 00:21:23;;;;;;;9.45;1.75;;;;;;;15.42;77.14;100057.94;4960532;28;20506;-64
2022/05/24 00:23:50;;;;;;;5.68;1.50;;;;;;;15.93;75.68;100050.31;4961040;28;20054;-70
2022/05/24 00:26:26;;;;;;;9.48;2.17;;;;;;;15.82;74.59;100065.94;4961043;28;20050;-64
2022/05/24 00:28:54;;;;;;;5.63;1.70;;;;;;;15.90;73.57;100055.81;4961112;28;20051;-65
2022/05/24 00:31:21;;;;;;;5.95;1.60;;;;;;;16.38;73.53;100044.88;4977828;28;20050;-64
2022/05/24 00:33:49;;;;;;;8.88;1.83;;;;;;;15.90;72.31;100039.94;4960598;28;20059;-65
2022/05/24 00:36:18;;;;;;;10.93;1.70;;;;;;;16.14;73.19;100048.00;4961084;28;20502;-64
2022/05/24 00:38:45;;;;;;;5.10;1.63;;;;;;;16.21;71.28;100041.75;4977251;28;20054;-71
2022/05/24 00:41:24;;;;;;;9.48;1.80;;;;;;;16.38;72.29;100030.97;4977411;28;20058;-64
2022/05/24 00:43:56;;;;;;;7.03;1.48;;;;;;;15.93;72.82;100021.75;4946688;28;20054;-70
2022/05/24 00:46:59;;;;;;;8.43;2.17;;;;;;;16.22;72.99;100024.72;4976469;28;20161;-64
2022/05/24 00:49:33;;;;;;;6.72;1.83;;;;;;;15.93;72.86;100030.06;4992711;28;20062;-65
2022/05/24 00:52:08;;;;;;;6.20;1.80;;;;;;;15.65;72.99;100033.06;4976308;28;20061;-65
2022/05/24 00:54:36;;;;;;;6.07;1.60;;;;;;;15.94;73.37;100024.16;4992520;28;20047;-64
2022/05/24 00:57:28;;;;;;;10.27;1.73;;;;;;;16.24;71.21;100019.59;4976624;28;20047;-70
2022/05/24 00:59:58;;;;;;;6.18;2.10;;;;;;;15.99;70.93;100021.06;4959690;28;20042;-63
2022/05/24 01:02:25;;;;;;;;;;;;;;;15.18;73.89;100030.38;4978069;28;20073;-71
2022/05/24 01:04:53;;;;;;;5.18;1.50;;;;;;;15.59;73.69;100040.03;4977660;28;19922;-64
2022/05/24 01:07:20;;;;;;;11.63;2.30;;;;;;;15.70;73.93;100039.13;4976174;28;20058;-64
2022/05/24 01:09:51;;;;;;;7.65;1.60;;;;;;;15.79;72.41;100041.69;4976246;28;20051;-65
2022/05/24 01:12:28;;;;;;;8.45;1.58;;;;;;;15.68;71.84;100044.25;4975569;28;20386;-65
2022/05/24 01:14:57;;;;;;;8.27;2.13;;;;;;;15.57;73.00;100045.16;4977367;28;20497;-64
2022/05/24 01:17:24;;;;;;;7.07;1.85;;;;;;;15.46;73.64;100047.69;4976010;28;20063;-64
2022/05/24 01:19:52;;;;;;;9.18;2.08;;;;;;;15.15;72.66;100046.94;4992189;28;20055;-64
2022/05/24 01:22:19;;;;;;;8.00;1.90;;;;;;;15.70;73.64;100044.69;4977513;28;20055;-64
2022/05/24 01:25:03;;;;;;;7.47;1.50;;;;;;;16.01;71.38;100040.16;4976209;28;20051;-64
2022/05/24 01:27:32;;;;;;;6.07;1.50;;;;;;;15.37;72.51;100046.25;4976094;28;20054;-65
2022/05/24 01:29:59;;;;;;;8.70;1.55;;;;;;;15.13;72.13;100052.03;4975620;28;20054;-64
2022/05/24 01:38:02;;;;;;;7.50;1.77;;;;;;;14.84;74.34;100058.03;4977090;28;20070;-64
2022/05/24 01:40:29;;;;;;;6.30;1.77;;;;;;;15.02;73.82;100048.19;4977055;28;20055;-65
2022/05/24 01:42:57;;;;;;;10.68;1.80;;;;;;;15.05;73.58;100051.06;4977083;28;20050;-63
2022/05/24 01:45:34;;;;;;;6.07;1.20;;;;;;;15.65;72.34;100058.03;4972159;28;20051;-65
2022/05/24 01:48:07;;;;;;;5.40;1.50;;;;;;;15.58;71.57;100055.91;4956177;29;20158;-63
2022/05/24 01:50:35;;;;;;;6.07;1.58;;;;;;;15.75;71.44;100077.72;4940433;29;20427;-65
2022/05/24 01:53:07;;;;;;;7.25;1.60;;;;;;;15.93;69.80;100077.28;4940329;29;20250;-64
2022/05/24 01:55:38;;;;;;;6.32;1.40;;;;;;;15.47;71.35;100068.75;4956455;29;20055;-66
2022/05/24 01:58:08;;;;;;;9.88;2.10;;;;;;;15.00;72.92;100079.06;4972242;28;20062;-65
2022/05/24 02:00:37;;;;;;;8.18;1.60;;;;;;;14.71;72.93;100073.16;4955305;29;20062;-65
2022/05/24 02:03:04;;;;;;;8.83;2.00;;;;;;;14.72;73.48;100077.50;4972086;28;20062;-65
2022/05/24 02:05:34;;;;;;;6.85;1.35;;;;;;;15.19;73.20;100075.56;4957245;29;20295;-64
2022/05/24 02:08:06;;;;;;;9.00;1.58;;;;;;;15.11;72.41;100074.59;4957232;29;20054;-64
2022/05/24 02:10:56;;;;;;;6.97;1.60;;;;;;;15.24;71.72;100075.28;4955620;29;20062;-64
2022/05/24 02:13:28;;;;;;;6.20;1.80;;;;;;;15.67;70.46;100064.81;4971254;28;20059;-64
2022/05/24 02:15:58;;;;;;;6.80;1.35;;;;;;;15.73;70.28;100068.13;4971666;28;20062;-70
2022/05/24 02:18:25;;;;;;;;;;;;;;;14.95;69.50;100067.44;4956535;29;20062;-70
2022/05/24 02:20:52;;;;;;;6.40;1.25;;;;;;;14.61;72.72;100071.69;4971849;28;19933;-64
2022/05/24 02:23:24;;;;;;;4.35;1.33;;;;;;;14.97;73.50;100067.88;4954929;29;20174;-64
2022/05/24 02:25:54;;;;;;;7.38;1.50;;;;;;;15.69;71.01;100056.94;4982581;28;20054;-64
2022/05/24 02:28:24;;;;;;;4.97;1.05;;;;;;;15.65;69.67;100063.59;4991152;28;20474;-64
2022/05/24 02:30:57;;;;;;;4.97;1.40;;;;;;;15.69;69.56;100065.28;4990362;28;20055;-64
2022/05/24 02:33:26;;;;;;;6.32;1.30;;;;;;;15.61;69.16;100071.84;4958816;28;20051;-65
2022/05/24 02:35:53;;;;;;;5.50;1.40;;;;;;;15.54;68.99;100079.19;4974857;28;20059;-64
2022/05/24 02:38:21;;;;;;;5.97;1.10;;;;;;;15.13;72.06;100069.47;4975987;28;20058;-65
2022/05/24 02:43:36;;;;;;;7.13;1.15;;;;;;;15.71;69.47;100068.50;4975914;28;20047;-65
2022/05/24 02:46:04;;;;;;;4.80;1.17;;;;;;;15.81;69.03;100071.88;4971228;28;20063;-64
2022/05/24 02:48:32;;;;;;;4.07;1.10;;;;;;;16.05;68.59;100080.72;4956755;29;20055;-65
2022/05/24 02:50:59;;;;;;;4.05;1.20;;;;;;;16.12;68.15;100086.44;4971495;28;20062;-64
2022/05/24 02:53:26;;;;;;;7.85;1.52;;;;;;;16.26;67.70;100078.41;4956507;29;20055;-64
2022/05/24 02:55:54;;;;;;;5.80;1.25;;;;;;;15.81;67.89;100083.78;4956649;29;20058;-65
2022/05/24 02:58:21;;;;;;;6.68;1.13;;;;;;;16.03;68.40;100082.25;4956765;29;20055;-64
2022/05/24 03:00:48;;;;;;;2.83;0.90;;;;;;;15.80;69.04;100090.50;4956398;29;20062;-65
2022/05/24 03:03:16;;;;;;;7.22;1.30;;;;;;;16.03;67.52;100087.81;4956451;29;20058;-64
2022/05/24 03:05:43;;;;;;;7.68;1.33;;;;;;;16.08;67.93;100093.88;4971282;28;20121;-64
2022/05/24 03:10:59;;;;;;;5.07;1.25;;;;;;;15.49;69.08;100101.69;4956580;29;20058;-64
2022/05/24 03:16:14;;;;;;;7.82;1.35;;;;;;;15.38;68.24;100103.38;4956478;29;20161;-65
2022/05/24 03:18:42;;;;;;;5.63;1.10;;;;;;;15.70;67.72;100097.44;4956640;29;20434;-65
2022/05/24 03:21:10;;;;;;;7.32;1.50;;;;;;;15.38;69.20;100106.94;4956670;28;20059;-64
2022/05/24 03:23:37;;;;;;;6.65;1.13;;;;;;;15.85;68.69;100098.53;4986811;28;20059;-65
2022/05/24 03:26:05;;;;;;;6.88;1.42;;;;;;;15.99;67.69;100109.19;4970848;28;20051;-64
2022/05/24 03:28:32;;;;;;;8.93;1.50;;;;;;;15.84;67.37;100119.16;4955362;29;20775;-64
2022/05/24 03:31:03;;;;;;;4.82;1.38;;;;;;;15.88;67.80;100119.25;4986934;28;20069;-65
2022/05/24 03:33:31;;;;;;;5.55;1.17;;;;;;;16.09;67.23;100128.03;4987522;28;20055;-64
2022/05/24 03:36:00;;;;;;;4.80;1.60;;;;;;;15.89;67.51;100116.09;4956293;29;20039;-65
2022/05/24 03:38:30;;;;;;;4.55;1.40;;;;;;;15.81;67.49;100119.91;4970765;28;20059;-63
2022/05/24 03:40:58;;;;;;;;;;;;;;;15.72;66.99;100122.88;4974713;28;20051;-64
2022/05/24 03:43:26;;;;;;;9.38;1.88;;;;;;;15.25;68.68;100126.84;4990420;28;20296;-64
2022/05/24 03:46:01;;;;;;;3.75;0.93;;;;;;;15.50;68.59;100126.31;4958564;28;20081;-65
2022/05/24 03:48:28;;;;;;;10.07;1.10;;;;;;;15.54;68.22;100132.75;5006539;28;20051;-65
2022/05/24 03:50:56;;;;;;;8.52;1.88;;;;;;;15.81;67.95;100130.19;4990571;28;20054;-64
2022/05/24 03:53:25;;;;;;;9.27;1.40;;;;;;;15.71;67.45;100142.66;4975553;28;20065;-64
2022/05/24 03:55:53;;;;;;;5.88;1.10;;;;;;;15.59;67.20;100149.13;4976068;28;20039;-64
2022/05/24 03:58:21;;;;;;;6.15;1.00;;;;;;;15.48;68.26;100152.81;4979672;28;20059;-64
2022/05/24 04:00:49;;;;;;;6.68;1.20;;;;;;;15.61;67.44;100154.31;4993433;28;20502;-64
2022/05/24 04:03:17;;;;;;;5.28;1.15;;;;;;;15.50;68.02;100158.78;4979302;28;20174;-64
2022/05/24 04:05:46;;;;;;;3.70;1.00;;;;;;;15.51;68.23;100155.69;4993689;28;20478;-64
2022/05/24 04:08:19;;;;;;;3.63;0.90;;;;;;;15.65;67.58;100161.59;4993986;28;20062;-64
2022/05/24 04:10:46;;;;;;;5.00;1.45;;;;;;;15.48;67.11;100161.16;4962045;28;20065;-64
2022/05/24 04:13:14;;;;;;;7.15;1.17;;;;;;;15.55;67.81;100164.88;4978439;28;20058;-68
2022/05/24 04:15:41;;;;;;;4.35;1.33;;;;;;;15.42;67.81;100166.16;4978755;28;20038;-63
2022/05/24 04:18:09;;;;;;;4.75;0.90;;;;;;;15.43;68.46;100167.75;4979062;28;20059;-64
2022/05/24 04:20:36;;;;;;;7.15;1.25;;;;;;;15.79;67.13;100164.66;4977608;28;20074;-64
2022/05/24 04:23:04;;;;;;;6.28;1.23;;;;;;;15.67;66.84;100164.00;4993868;28;20069;-64
2022/05/24 04:25:34;;;;;;;8.00;1.45;;;;;;;15.49;67.62;100163.56;4979328;28;20042;-64
2022/05/24 04:28:02;;;;;;;3.83;1.27;;;;;;;15.44;67.94;100165.81;5009796;28;20061;-64
2022/05/24 04:30:29;;;;;;;5.28;1.13;;;;;;;15.63;67.58;100174.19;4978479;28;20164;-64
2022/05/24 04:32:56;;;;;;;5.22;1.20;;;;;;;15.30;68.00;100176.50;4977139;28;20414;-63
2022/05/24 04:35:24;;;;;;;6.18;1.20;;;;;;;15.64;67.57;100186.91;4977404;28;20066;-64
2022/05/24 04:37:52;;;;;;;2.95;0.80;;;;;;;15.42;67.68;100185.59;4990064;28;20413;-64
2022/05/24 04:42:18;;;;;;;5.47;1.15;;;;;;;15.62;67.57;100192.81;4996979;28;20058;-64
2022/05/24 04:43:08;;;;;;;5.82;1.25;;;;;;;15.71;67.02;100195.41;5013392;28;20065;-63
2022/05/24 04:45:36;;;;;;;7.00;1.17;;;;;;;15.75;66.13;100199.09;4968307;28;20051;-64
2022/05/24 04:48:06;;;;;;;5.97;1.20;;;;;;;15.63;65.92;100204.75;4978835;28;20066;-64
2022/05/24 04:50:37;;;;;;;6.25;1.10;;;;;;;15.39;67.62;100210.44;4978862;28;20051;-63
2022/05/24 04:53:06;;;;;;;6.25;1.15;;;;;;;15.51;67.28;100204.84;4960994;28;20081;-64
2022/05/24 04:55:33;;;;;;;5.35;1.10;;;;;;;15.72;66.18;100205.38;4978553;28;20066;-65
2022/05/24 04:58:01;;;;;;;4.40;1.00;;;;;;;15.74;65.82;100208.59;4961525;28;20054;-64
2022/05/24 05:00:28;;;;;;;5.55;0.90;;;;;;;15.63;66.36;100216.66;4978212;28;20050;-64
2022/05/24 05:02:57;;;;;;;6.70;1.00;;;;;;;15.45;66.75;100220.94;4978179;28;20051;-63
2022/05/24 05:05:24;;;;;;;2.80;0.77;;;;;;;15.59;66.59;100221.31;4992987;28;20099;-65
2022/05/24 05:07:55;;;;;;;;;;;;;;;15.58;66.36;100232.78;4978392;28;20058;-65
2022/05/24 05:10:22;;;;;;;5.18;1.33;;;;;;;15.83;66.31;100236.16;4961142;28;19922;-65
2022/05/24 05:12:49;;;;;;;5.97;1.48;;;;;;;15.97;65.45;100230.97;4978088;28;20047;-65
2022/05/24 05:15:17;;;;;;;8.77;1.20;;;;;;;15.86;65.35;100232.66;4977705;28;20047;-64
2022/05/24 05:17:44;;;;;;;3.65;1.05;;;;;;;15.90;65.08;100228.00;4976270;28;20049;-64
2022/05/24 05:20:13;;;;;;;5.25;1.33;;;;;;;15.58;65.47;100228.03;4960842;28;20144;-64
2022/05/24 05:22:40;;;;;;;7.97;1.40;;;;;;;15.78;66.18;100237.22;4977652;28;20053;-65
2022/05/24 05:25:08;;;;;;;3.05;0.95;;;;;;;15.88;65.34;100242.25;4977646;28;20062;-65
2022/05/24 05:27:35;;;;;;;5.93;1.13;;;;;;;15.63;65.25;100254.72;4978084;28;20515;-64
2022/05/24 05:32:50;;;;;;;7.15;0.90;;;;;;;15.85;65.70;100245.75;4977774;28;20057;-65
2022/05/24 05:35:18;;;;;;;4.07;0.90;;;;;;;15.44;66.18;100254.63;4960572;28;20053;-64
2022/05/24 05:37:45;;;;;;;5.88;1.20;;;;;;;15.69;65.76;100262.41;4977081;28;20063;-65
2022/05/24 05:40:14;;;;;;;8.43;1.08;;;;;;;15.40;65.55;100268.41;4975882;28;20054;-65
2022/05/24 05:42:42;;;;;;;5.75;1.27;;;;;;;15.34;66.28;100264.22;4977242;28;20050;-64
2022/05/24 05:45:11;;;;;;;4.28;1.30;;;;;;;15.63;66.03;100265.81;4942066;29;20050;-64
2022/05/24 05:47:39;;;;;;;6.30;1.20;;;;;;;15.71;66.19;100265.63;4956744;29;20062;-64
2022/05/24 05:50:07;;;;;;;7.57;1.20;;;;;;;15.77;65.63;100269.78;4957905;29;20058;-65
2022/05/24 05:52:35;;;;;;;7.78;1.88;;;;;;;15.74;65.91;100275.25;4958016;29;20054;-64
2022/05/24 05:55:03;;;;;;;6.63;1.15;;;;;;;15.75;64.88;100285.97;4957733;29;20059;-65
2022/05/24 05:57:30;;;;;;;7.50;1.48;;;;;;;15.06;67.05;100285.69;4957787;29;20494;-65
2022/05/24 05:59:58;;;;;;;4.75;1.48;;;;;;;15.39;67.07;100286.19;4956412;29;20550;-64
2022/05/24 06:02:25;;;;;;;8.15;1.17;;;;;;;15.42;65.93;100290.25;4957526;29;20066;-64
2022/05/24 06:04:53;;;;;;;6.53;1.00;;;;;;;15.25;66.87;100282.22;4956489;29;20055;-64
2022/05/24 06:07:22;;;;;;;5.05;0.90;;;;;;;15.22;66.65;100286.50;4957393;29;20070;-64
2022/05/24 06:09:52;;;;;;;9.23;1.40;;;;;;;15.51;66.84;100294.47;4957639;29;20517;-65
2022/05/24 06:12:19;;;;;;;7.15;1.85;;;;;;;15.78;65.11;100296.38;4956171;29;20506;-65
2022/05/24 06:14:47;;;;;;;5.50;1.00;;;;;;;15.51;65.67;100294.47;4956048;29;20055;-63
2022/05/24 06:17:27;;;;;;;9.07;1.00;;;;;;;15.88;64.96;100306.16;4957377;29;20264;-65
2022/05/24 06:19:54;;;;;;;5.45;1.13;;;;;;;15.95;64.35;100302.72;4957145;28;20064;-64
2022/05/24 06:22:21;;;;;;;8.45;1.25;;;;;;;15.81;65.00;100305.97;4956062;29;20047;-64
2022/05/24 06:24:49;;;;;;;6.18;1.00;;;;;;;15.84;64.24;100312.75;4955287;29;20062;-64
2022/05/24 06:27:21;;;;;;;7.93;1.75;;;;;;;16.02;64.00;100312.06;4957260;29;20077;-64
2022/05/24 06:29:49;;;;;;;5.10;1.30;;;;;;;15.98;63.86;100319.50;4956014;29;20063;-65
2022/05/24 06:32:16;;;;;;;5.93;1.20;;;;;;;15.61;64.71;100320.91;4957321;29;20058;-65
2022/05/24 06:34:48;;;;;;;6.30;1.20;;;;;;;16.00;64.14;100328.28;4956078;29;20062;-65
2022/05/24 06:37:20;;;;;;;8.02;1.40;;;;;;;16.29;63.37;100321.41;4971102;28;20054;-65
2022/05/24 06:39:48;;;;;;;10.02;1.42;;;;;;;16.25;63.04;100335.22;4956335;29;20055;-64
2022/05/24 06:42:16;;;;;;;4.13;1.13;;;;;;;15.98;62.65;100324.22;4955366;29;20051;-64
2022/05/24 06:44:44;;;;;;;6.07;0.88;;;;;;;16.13;63.30;100328.97;4962002;28;20065;-64
2022/05/24 06:47:12;;;;;;;7.53;1.33;;;;;;;15.74;62.37;100328.78;4990740;28;20047;-65
2022/05/24 06:49:47;;;;;;;7.05;1.20;;;;;;;16.03;63.58;100330.31;4975889;28;20441;-66
2022/05/24 06:52:15;;;;;;;7.45;1.48;;;;;;;16.27;62.81;100337.66;4975710;28;20061;-64
2022/05/24 06:54:43;;;;;;;6.60;1.20;;;;;;;16.21;63.05;100339.09;4975516;28;20054;-65
2022/05/24 06:57:10;;;;;;;12.30;2.22;;;;;;;16.04;61.96;100340.25;4975553;28;20080;-64
2022/05/24 07:02:26;;;;;;;10.77;1.50;;;;;;;16.30;61.35;100354.41;4975680;28;20055;-65
2022/05/24 07:05:20;;;;;;;9.48;1.60;;;;;;;16.36;62.63;100354.94;4958034;28;20058;-65
2022/05/24 07:07:48;;;;;;;8.38;1.17;;;;;;;15.71;62.95;100353.69;4973319;28;20158;-64
2022/05/24 07:10:20;;;;;;;6.13;1.45;;;;;;;15.97;63.82;100350.41;4989948;28;20051;-66
2022/05/24 07:13:01;;;;;;;6.97;1.25;;;;;;;16.16;62.14;100347.72;4958416;28;20517;-64
2022/05/24 07:15:29;;;;;;;6.53;1.13;;;;;;;16.24;61.71;100357.81;4975185;28;20507;-65
2022/05/24 07:17:57;;;;;;;7.68;1.25;;;;;;;16.50;61.39;100360.88;4990200;28;20047;-64
2022/05/24 07:20:26;;;;;;;6.78;1.17;;;;;;;16.28;60.45;100355.94;4974257;28;20054;-65
2022/05/24 07:22:57;;;;;;;4.18;1.23;;;;;;;16.26;60.43;100361.88;4989081;28;20057;-66
2022/05/24 07:25:24;;;;;;;5.63;0.98;;;;;;;16.32;61.37;100359.63;4957994;28;20059;-66
2022/05/24 07:27:52;;;;;;;6.40;1.13;;;;;;;16.27;61.53;100365.44;4975263;28;20043;-66
2022/05/24 07:30:19;;;;;;;6.30;1.20;;;;;;;16.62;59.95;100361.56;4973346;28;20062;-66
2022/05/24 07:32:47;;;;;;;4.50;1.00;;;;;;;17.48;58.27;100360.28;4978401;28;20051;-66
2022/05/24 07:35:15;;;;;;;4.30;0.90;;;;;;;17.36;57.08;100365.97;4993106;28;20441;-64
2022/05/24 07:37:42;;;;;;;5.63;1.08;;;;;;;17.77;56.84;100364.38;4939735;28;1137887;-65
2022/05/24 07:45:49;;;;;;;10.38;1.67;;;;;;;16.94;57.79;100365.06;4974849;28;20046;-72
2022/05/24 07:48:18;;;;;;;9.07;1.45;;;;;;;17.72;56.47;100370.28;4979555;28;20062;-64
2022/05/24 07:50:46;;;;;;;2.83;0.77;;;;;;;18.05;54.47;100359.31;4978617;28;20050;-65
2022/05/24 07:53:14;;;;;;;5.85;1.00;;;;;;;18.15;53.31;100363.50;4961830;28;20065;-63
2022/05/24 07:55:42;;;;;;;5.80;1.33;;;;;;;17.99;54.21;100361.63;4962176;28;20065;-64
2022/05/24 07:58:10;;;;;;;8.07;1.45;;;;;;;17.93;54.08;100379.84;4979384;28;20043;-64
2022/05/24 08:00:38;;;;;;;11.23;1.85;;;;;;;18.16;52.63;100379.03;4979111;28;20059;-70
2022/05/24 08:03:06;;;;;;;10.55;1.70;;;;;;;18.35;52.67;100370.59;4961933;28;20055;-71
2022/05/24 08:05:34;;;;;;;7.05;1.35;;;;;;;18.52;51.39;100379.25;4977426;28;20063;-65
2022/05/24 08:08:06;;;;;;;8.93;1.45;;;;;;;18.61;51.45;100376.22;4978041;28;20058;-65
2022/05/24 08:10:35;;;;;;;4.90;1.23;;;;;;;18.87;50.88;100368.63;4994137;28;20051;-65
2022/05/24 08:13:13;;;;;;;7.60;1.40;;;;;;;18.75;50.51;100374.44;4979130;28;20051;-65
2022/05/24 08:15:42;;;;;;;7.32;1.05;;;;;;;18.55;50.44;100378.50;4977705;28;20111;-65
2022/05/24 08:18:09;;;;;;;5.57;1.08;;;;;;;18.88;51.00;100377.81;4977831;28;20046;-66
2022/05/24 08:20:38;;;;;;;6.10;1.23;;;;;;;18.59;51.07;100381.34;4962057;28;20066;-65
2022/05/24 08:23:05;;;;;;;8.60;1.00;;;;;;;17.90;51.46;100379.78;4945830;28;20051;-65
2022/05/24 08:25:38;;;;;;;6.28;1.20;;;;;;;18.26;51.89;100376.41;4993348;28;20051;-65
2022/05/24 08:28:07;;;;;;;6.72;1.05;;;;;;;18.27;50.40;100377.22;4961393;28;20058;-65
2022/05/24 08:30:36;;;;;;;;;;;;;;;17.35;51.12;100380.22;4979299;28;20053;-65
2022/05/24 08:33:04;;;;;;;8.95;1.13;;;;;;;17.28;52.61;100382.88;4978103;28;19922;-65
2022/05/24 08:35:33;;;;;;;5.63;1.13;;;;;;;17.70;53.48;100390.16;4978956;28;20051;-65
2022/05/24 08:38:02;;;;;;;9.53;1.33;;;;;;;17.21;53.58;100391.09;4978717;28;20055;-65
2022/05/24 08:40:31;;;;;;;4.40;1.20;;;;;;;17.69;53.03;100382.16;4978909;28;20302;-67
2022/05/24 08:43:13;;;;;;;4.93;1.73;;;;;;;18.36;51.85;100375.00;4978259;28;20630;-66
2022/05/24 08:48:55;;;;;;;5.65;1.48;;;;;;;18.69;50.55;100375.94;4978470;28;20055;-66
2022/05/24 08:51:31;;;;;;;10.65;1.63;;;;;;;18.33;50.42;100378.50;4978300;28;20059;-65
2022/05/24 08:54:20;;;;;;;6.78;1.33;;;;;;;18.51;49.99;100374.06;4960851;28;20051;-66
2022/05/24 08:56:51;;;;;;;12.02;1.90;;;;;;;18.32;49.21;100371.34;4993230;28;20057;-67
2022/05/24 08:59:22;;;;;;;5.95;1.23;;;;;;;18.25;49.44;100380.41;4976930;28;20054;-65
2022/05/24 09:01:50;;;;;;;7.93;1.83;;;;;;;18.30;48.87;100376.47;4978475;28;20053;-65
2022/05/24 09:04:18;;;;;;;5.75;1.17;;;;;;;18.49;50.49;100382.00;4993576;28;20059;-66
2022/05/24 09:06:59;;;;;;;5.15;1.13;;;;;;;18.25;49.10;100382.38;4978430;28;20635;-65
2022/05/24 09:09:30;;;;;;;10.93;1.40;;;;;;;17.19;49.60;100387.88;4977157;28;20062;-66
2022/05/24 09:12:22;;;;;;;8.13;1.08;;;;;;;17.17;52.88;100376.28;4978263;28;20560;-65
2022/05/24 09:14:56;;;;;;;7.90;1.13;;;;;;;17.90;52.61;100386.13;4977785;28;20054;-64
2022/05/24 09:18:12;;;;;;;5.97;1.05;;;;;;;18.47;50.71;100374.00;4976390;28;20055;-66
2022/05/24 09:20:42;;;;;;;2.97;1.00;;;;;;;18.85;49.60;100382.16;4967581;28;20063;-65
2022/05/24 09:23:45;;;;;;;5.85;1.20;;;;;;;18.13;48.18;100385.34;4975555;28;20058;-66
2022/05/24 09:26:22;;;;;;;7.95;1.65;;;;;;;17.80;50.61;100395.09;4945223;28;20050;-66
2022/05/24 09:28:55;;;;;;;11.32;1.15;;;;;;;18.33;49.62;100381.31;4976625;28;20412;-68
2022/05/24 09:31:33;;;;;;;4.95;1.27;;;;;;;18.11;47.33;100379.34;4977691;28;20062;-65
2022/05/24 09:34:04;;;;;;;8.38;1.85;;;;;;;17.98;47.50;100392.66;4960600;28;20054;-65
2022/05/24 09:36:41;;;;;;;4.80;1.17;;;;;;;18.08;49.62;100385.66;4944786;28;20059;-66
2022/05/24 09:39:30;;;;;;;2.25;0.90;;;;;;;18.40;47.87;100390.63;4960231;28;20650;-66
2022/05/24 09:42:07;;;;;;;5.70;1.40;;;;;;;18.69;48.77;100398.25;4976608;28;20514;-66
2022/05/24 09:44:57;;;;;;;4.82;1.00;;;;;;;18.68;45.78;100396.66;4955572;28;20051;-65
2022/05/24 09:47:35;;;;;;;9.90;1.42;;;;;;;18.81;48.32;100397.25;4977380;28;20053;-65
2022/05/24 09:50:14;;;;;;;10.20;1.95;;;;;;;19.15;46.33;100389.75;4974960;28;20074;-72
2022/05/24 09:52:46;;;;;;;4.68;1.27;;;;;;;19.02;46.34;100389.19;4992447;28;20054;-72
2022/05/24 09:55:23;;;;;;;6.63;1.58;;;;;;;19.11;46.38;100394.50;4960258;28;20047;-74
2022/05/24 09:57:50;;;;;;;4.68;1.42;;;;;;;18.95;45.20;100400.25;4977510;28;20058;-72
2022/05/24 10:00:20;;;;;;;5.32;1.13;;;;;;;18.84;46.32;100399.28;4960231;28;20059;-71
2022/05/24 10:02:48;;;;;;;7.75;2.03;;;;;;;18.89;46.75;100408.16;4977122;28;20051;-72
2022/05/24 10:05:27;;;;;;;7.00;1.58;;;;;;;19.08;46.06;100396.84;4976948;28;20070;-72
2022/05/24 10:08:14;;;;;;;6.88;1.27;;;;;;;18.92;47.25;100399.00;4975952;28;20065;-73
2022/05/24 10:10:49;;;;;;;8.85;2.03;;;;;;;19.31;46.70;100399.56;4976820;28;20186;-71
2022/05/24 10:13:32;;;;;;;7.53;1.70;;;;;;;19.03;44.52;100402.75;4960101;28;20050;-73
2022/05/24 10:16:28;;;;;;;6.60;2.33;;;;;;;18.12;45.24;100411.59;4975819;28;20521;-73
2022/05/24 10:19:14;;;;;;;7.68;1.88;;;;;;;17.93;48.24;100418.03;4942257;28;20066;-71
2022/05/24 10:22:03;;;;;;;9.02;1.90;;;;;;;17.70;46.83;100418.00;4976867;28;20078;-72
2022/05/24 10:25:04;;;;;;;5.73;1.57;;;;;;;17.73;46.58;100417.25;4959543;28;20409;-73
2022/05/24 10:27:42;;;;;;;5.95;1.40;;;;;;;17.75;47.31;100414.09;4977365;28;20067;-73
2022/05/24 10:30:20;;;;;;;6.57;1.40;;;;;;;17.84;48.50;100417.47;4975625;28;20058;-73
2022/05/24 10:39:34;;;;;;;8.85;1.50;;;;;;;18.59;45.87;100407.28;4962598;28;20054;-72
2022/05/24 10:42:03;;;;;;;6.88;1.83;;;;;;;18.48;47.85;100405.50;4898048;29;20057;-73
2022/05/24 10:44:44;;;;;;;5.55;1.90;;;;;;;18.81;47.86;100416.78;4963055;28;20059;-71
2022/05/24 10:47:27;;;;;;;6.18;2.08;;;;;;;19.14;45.69;100413.28;4959813;28;20058;-74
2022/05/24 10:50:01;;;;;;;6.75;1.65;;;;;;;19.32;44.99;100411.56;4976780;28;20073;-74
2022/05/24 10:52:38;;;;;;;14.30;6.57;;;;;;;19.22;43.10;100412.16;4976842;28;20066;-72
2022/05/24 10:55:38;;;;;;;30.35;11.02;;;;;;;18.71;44.63;100412.66;4959612;28;20062;-71
2022/05/24 10:58:18;;;;;;;18.00;8.00;;;;;;;18.67;45.58;100411.78;4958398;28;20062;-75
2022/05/24 11:01:32;;;;;;;10.80;4.03;;;;;;;19.15;45.51;100410.09;4958746;28;20059;-73
2022/05/24 11:04:09;;;;;;;8.85;2.65;;;;;;;19.37;45.46;100416.81;4958189;28;20450;-71
2022/05/24 11:06:41;;;;;;;18.15;5.95;;;;;;;18.39;43.64;100421.66;4962694;28;20054;-72
2022/05/24 11:09:18;;;;;;;32.17;11.70;;;;;;;17.66;46.11;100433.84;4980435;28;20054;-73
2022/05/24 11:11:47;;;;;;;25.23;10.32;;;;;;;17.90;46.60;100425.13;4963310;28;20047;-71
2022/05/24 11:14:38;;;;;;;10.90;5.68;;;;;;;18.57;46.55;100422.75;4963209;28;20074;-75
2022/05/24 11:17:10;;;;;;;10.50;4.60;;;;;;;18.58;44.25;100419.63;4963112;28;20409;-72
2022/05/24 11:19:41;;;;;;;9.77;4.70;;;;;;;18.63;44.28;100412.91;4963174;28;20463;-72
2022/05/24 11:22:27;;;;;;;6.38;1.80;;;;;;;18.02;43.80;100423.38;4963245;28;20051;-72
2022/05/24 11:25:19;;;;;;;6.13;1.48;;;;;;;18.13;45.81;100424.38;4994447;28;20058;-72
2022/05/24 11:27:52;;;;;;;6.15;1.30;;;;;;;17.93;45.30;100420.81;4962822;28;20050;-71
2022/05/24 11:30:28;;;;;;;5.43;1.42;;;;;;;17.63;45.67;100423.44;4961943;28;20394;-72
2022/05/24 11:33:07;;;;;;;;;;;;;;;17.67;45.71;100421.53;4995156;28;20055;-73
2022/05/24 11:35:42;;;;;;;28.00;13.48;;;;;;;17.07;46.76;100419.41;4980127;28;20318;-71
2022/05/24 11:38:35;;;;;;;26.08;11.50;;;;;;;17.38;48.30;100421.28;4980469;28;20066;-71
2022/05/24 11:41:19;;;;;;;11.50;4.38;;;;;;;18.02;46.56;100412.22;4970343;28;20058;-72
2022/05/24 11:43:47;;;;;;;12.38;5.13;;;;;;;19.03;46.38;100405.56;4980219;28;20047;-73
2022/05/24 11:46:33;;;;;;;32.72;16.25;;;;;;;19.49;44.89;100405.38;4978307;28;20069;-73
2022/05/24 11:49:09;;;;;;;28.42;15.95;;;;;;;19.95;43.63;100398.31;4983360;28;20062;-71
2022/05/24 11:51:50;;;;;;;15.80;10.07;;;;;;;20.43;41.26;100388.00;4985660;28;20074;-73
2022/05/24 11:54:18;;;;;;;15.02;8.32;;;;;;;20.13;41.79;100383.34;4978604;28;20059;-72
2022/05/24 11:57:01;;;;;;;7.85;2.83;;;;;;;19.16;42.95;100400.53;4979713;28;20043;-73
2022/05/24 11:59:48;;;;;;;5.60;2.15;;;;;;;18.59;44.02;100409.25;4980773;28;20047;-72
2022/05/24 12:02:33;;;;;;;6.82;2.40;;;;;;;18.77;43.86;100413.94;4979881;28;20055;-71
2022/05/24 12:07:54;;;;;;;9.70;1.88;;;;;;;19.33;44.92;100397.22;4994337;28;20506;-72
2022/05/24 12:10:22;;;;;;;;;;;;;;;19.66;43.17;100402.00;4979987;28;20050;-72
2022/05/24 12:12:52;;;;;;;7.93;1.83;;;;;;;19.41;40.94;100409.25;4979855;28;19922;-71
2022/05/24 12:15:47;;;;;;;8.63;1.65;;;;;;;18.09;44.94;100421.53;4979694;28;20054;-72
2022/05/24 12:18:17;;;;;;;11.25;1.40;;;;;;;18.54;45.49;100412.38;4979802;28;20054;-72
2022/05/24 12:20:46;;;;;;;6.85;1.33;;;;;;;18.78;44.81;100417.53;4962733;28;20054;-72
2022/05/24 12:23:34;;;;;;;4.18;1.20;;;;;;;18.57;45.06;100423.56;4980339;28;20047;-73
2022/05/24 12:26:07;;;;;;;4.82;1.50;;;;;;;18.81;44.96;100414.00;4977367;28;20066;-72
2022/05/24 12:28:34;;;;;;;6.78;1.50;;;;;;;19.26;44.87;100411.06;4979355;28;20055;-71